createdAt,value
2018-07-09T00:00:09.044Z,17.50
2018-07-09T00:02:37.139Z,17.50
2018-07-09T00:05:05.225Z,17.60
2018-07-09T00:07:33.316Z,17.60
2018-07-09T00:10:01.443Z,17.50
2018-07-09T00:12:29.570Z,17.30
2018-07-09T00:14:57.670Z,17.10
2018-07-09T00:17:26.792Z,16.80
2018-07-09T00:19:54.895Z,16.60
2018-07-09T00:22:23.003Z,16.50
2018-07-09T00:24:51.079Z,16.30
2018-07-09T00:27:19.186Z,16.30
2018-07-09T00:32:15.151Z,16.10
2018-07-09T00:34:43.270Z,16.10
2018-07-09T00:37:12.347Z,16.10
2018-07-09T00:39:40.450Z,15.90
2018-07-09T00:44:36.452Z,15.90
2018-07-09T00:47:04.550Z,15.80
2018-07-09T00:49:32.635Z,15.70
2018-07-09T00:52:00.851Z,15.80
2018-07-09T00:54:28.948Z,15.80
2018-07-09T00:56:57.055Z,15.90
2018-07-09T00:59:25.188Z,15.90
2018-07-09T01:01:53.272Z,16.00
2018-07-09T01:04:21.403Z,15.90
2018-07-09T01:06:49.491Z,15.70
2018-07-09T01:09:17.603Z,15.70
2018-07-09T01:11:47.008Z,15.60
2018-07-09T01:14:21.691Z,15.60
2018-07-09T01:16:49.798Z,15.60
2018-07-09T01:19:17.939Z,15.60
2018-07-09T01:21:46.046Z,15.50
2018-07-09T01:24:14.203Z,15.40
2018-07-09T01:26:42.348Z,15.30
2018-07-09T01:29:10.463Z,15.20
2018-07-09T01:31:38.584Z,15.10
2018-07-09T01:34:06.692Z,15.10
2018-07-09T01:36:34.789Z,15.10
2018-07-09T01:39:02.991Z,15.10
2018-07-09T01:41:31.120Z,15.20
2018-07-09T01:43:59.253Z,15.30
2018-07-09T01:46:27.363Z,15.20
2018-07-09T01:48:55.484Z,15.20
2018-07-09T01:51:23.607Z,15.30
2018-07-09T01:53:51.708Z,15.30
2018-07-09T01:56:19.821Z,15.20
2018-07-09T01:58:48.048Z,15.30
2018-07-09T02:01:16.191Z,15.30
2018-07-09T02:03:44.304Z,15.40
2018-07-09T02:06:12.414Z,15.50
2018-07-09T02:08:40.528Z,15.60
2018-07-09T02:11:08.675Z,15.60
2018-07-09T02:13:36.804Z,15.60
2018-07-09T02:16:04.948Z,15.50
2018-07-09T02:18:33.086Z,15.50
2018-07-09T02:21:01.218Z,15.20
2018-07-09T02:23:29.314Z,15.10
2018-07-09T02:25:57.416Z,15.10
2018-07-09T02:28:25.537Z,15.00
2018-07-09T02:30:53.655Z,14.90
2018-07-09T02:35:49.675Z,14.90
2018-07-09T02:38:17.785Z,14.70
2018-07-09T02:40:45.955Z,14.70
2018-07-09T02:43:14.063Z,14.70
2018-07-09T02:45:42.207Z,14.60
2018-07-09T02:48:10.329Z,14.50
2018-07-09T02:50:38.438Z,14.40
2018-07-09T02:53:06.527Z,14.40
2018-07-09T02:55:34.699Z,14.40
2018-07-09T02:58:02.848Z,14.30
2018-07-09T03:00:32.451Z,14.20
2018-07-09T03:03:00.550Z,14.10
2018-07-09T03:05:28.657Z,14.10
2018-07-09T03:07:56.791Z,14.10
2018-07-09T03:10:24.889Z,14.30
2018-07-09T03:12:53.022Z,14.40
2018-07-09T03:15:21.139Z,14.60
2018-07-09T03:17:49.252Z,14.50
2018-07-09T03:20:17.375Z,14.40
2018-07-09T03:22:45.476Z,14.30
2018-07-09T03:25:13.575Z,14.30
2018-07-09T03:27:41.689Z,14.20
2018-07-09T03:30:10.524Z,14.30
2018-07-09T03:32:38.658Z,14.20
2018-07-09T03:35:06.758Z,14.10
2018-07-09T03:37:34.856Z,14.10
2018-07-09T03:40:02.947Z,14.00
2018-07-09T03:42:31.043Z,14.00
2018-07-09T03:44:59.166Z,14.10
2018-07-09T03:47:27.287Z,14.20
2018-07-09T03:49:55.393Z,14.20
2018-07-09T03:52:23.499Z,14.30
2018-07-09T03:54:51.586Z,14.50
2018-07-09T03:57:19.688Z,14.50
2018-07-09T03:59:47.858Z,14.60
2018-07-09T04:02:16.012Z,14.70
2018-07-09T04:04:44.060Z,14.70
2018-07-09T04:07:12.164Z,14.80
2018-07-09T04:09:40.269Z,14.80
2018-07-09T04:12:08.380Z,14.80
2018-07-09T04:14:36.504Z,15.00
2018-07-09T04:17:04.644Z,15.00
2018-07-09T04:19:32.740Z,15.10
2018-07-09T04:22:00.857Z,15.20
2018-07-09T04:24:28.967Z,15.20
2018-07-09T04:26:57.070Z,15.20
2018-07-09T04:29:25.182Z,15.20
2018-07-09T04:31:53.620Z,15.20
2018-07-09T04:34:21.706Z,15.20
2018-07-09T04:36:49.822Z,15.20
2018-07-09T04:39:17.910Z,15.30
2018-07-09T04:41:46.017Z,15.40
2018-07-09T04:44:14.106Z,15.40
2018-07-09T04:46:42.215Z,15.50
2018-07-09T04:49:10.303Z,15.50
2018-07-09T04:51:38.410Z,15.60
2018-07-09T04:54:06.507Z,15.60
2018-07-09T04:56:34.619Z,15.60
2018-07-09T04:59:02.719Z,15.80
2018-07-09T05:01:30.811Z,15.80
2018-07-09T05:03:58.927Z,15.90
2018-07-09T05:06:27.040Z,16.10
2018-07-09T05:08:55.136Z,16.10
2018-07-09T05:11:23.224Z,16.10
2018-07-09T05:13:51.653Z,16.20
2018-07-09T05:16:19.767Z,16.20
2018-07-09T05:18:47.911Z,16.30
2018-07-09T05:21:16.008Z,16.30
2018-07-09T05:23:44.127Z,16.20
2018-07-09T05:26:12.236Z,16.30
2018-07-09T05:28:40.343Z,16.40
2018-07-09T05:31:08.482Z,16.30
2018-07-09T05:33:36.643Z,16.40
2018-07-09T05:36:04.771Z,16.40
2018-07-09T05:38:32.887Z,16.60
2018-07-09T05:41:01.019Z,16.60
2018-07-09T05:43:29.150Z,16.70
2018-07-09T05:45:57.401Z,16.70
2018-07-09T05:48:26.016Z,16.70
2018-07-09T05:50:54.168Z,16.70
2018-07-09T05:53:22.335Z,16.50
2018-07-09T05:55:50.400Z,16.50
2018-07-09T05:58:18.526Z,16.70
2018-07-09T06:00:46.643Z,16.70
2018-07-09T06:03:14.772Z,16.70
2018-07-09T06:05:42.889Z,16.60
2018-07-09T06:08:11.011Z,16.80
2018-07-09T06:10:39.122Z,16.90
2018-07-09T06:13:07.278Z,17.00
2018-07-09T06:15:35.367Z,17.10
2018-07-09T06:18:03.478Z,17.20
2018-07-09T06:20:31.579Z,17.10
2018-07-09T06:22:59.690Z,17.00
2018-07-09T06:25:27.812Z,17.10
2018-07-09T06:27:55.912Z,17.10
2018-07-09T06:30:24.037Z,17.10
2018-07-09T06:32:52.142Z,17.10
2018-07-09T06:35:20.826Z,17.10
2018-07-09T06:37:48.967Z,17.10
2018-07-09T06:40:17.081Z,17.30
2018-07-09T06:42:45.171Z,17.30
2018-07-09T06:45:13.276Z,17.40
2018-07-09T06:47:41.394Z,17.40
2018-07-09T06:50:09.499Z,17.60
2018-07-09T06:52:37.584Z,17.60
2018-07-09T06:55:05.743Z,17.70
2018-07-09T06:57:33.944Z,17.90
2018-07-09T07:00:02.057Z,18.10
2018-07-09T07:02:30.154Z,17.80
2018-07-09T07:04:58.254Z,17.60
2018-07-09T07:07:26.392Z,17.40
2018-07-09T07:09:54.490Z,17.40
2018-07-09T07:12:22.625Z,17.80
2018-07-09T07:14:50.731Z,18.10
2018-07-09T07:17:18.811Z,18.40
2018-07-09T07:19:46.924Z,18.70
2018-07-09T07:22:15.039Z,18.90
2018-07-09T07:24:43.146Z,19.00
2018-07-09T07:27:11.911Z,19.30
2018-07-09T07:29:40.049Z,19.60
2018-07-09T07:32:08.156Z,19.70
2018-07-09T07:34:36.291Z,19.90
2018-07-09T07:37:04.360Z,19.90
2018-07-09T07:39:32.494Z,20.00
2018-07-09T07:42:00.618Z,20.30
2018-07-09T07:44:28.751Z,20.50
2018-07-09T07:46:57.126Z,20.70
2018-07-09T07:49:25.244Z,20.70
2018-07-09T07:51:53.336Z,20.80
2018-07-09T07:54:21.472Z,21.00
2018-07-09T07:56:49.563Z,21.10
2018-07-09T07:59:17.667Z,21.00
2018-07-09T08:01:45.764Z,20.80
2018-07-09T08:04:13.850Z,21.00
2018-07-09T08:06:41.947Z,21.30
2018-07-09T08:09:10.170Z,21.30
2018-07-09T08:11:48.561Z,21.50
2018-07-09T08:14:06.468Z,21.70
2018-07-09T08:16:34.543Z,21.60
2018-07-09T08:19:02.665Z,21.60
2018-07-09T08:21:30.801Z,21.40
2018-07-09T08:23:58.918Z,21.60
2018-07-09T08:26:26.995Z,21.70
2018-07-09T08:28:55.114Z,22.00
2018-07-09T08:31:23.262Z,22.10
2018-07-09T08:33:51.329Z,22.10
2018-07-09T08:36:19.422Z,22.20
2018-07-09T08:38:47.542Z,22.30
2018-07-09T08:41:15.644Z,22.50
2018-07-09T08:43:43.742Z,22.50
2018-07-09T08:46:11.836Z,22.50
2018-07-09T08:48:39.928Z,22.70
2018-07-09T08:51:08.036Z,22.90
2018-07-09T08:53:36.140Z,23.20
2018-07-09T08:56:04.658Z,23.50
2018-07-09T08:58:32.833Z,23.50
2018-07-09T09:01:00.976Z,23.70
2018-07-09T09:03:29.059Z,24.00
2018-07-09T09:05:57.171Z,24.20
2018-07-09T09:08:25.326Z,24.10
2018-07-09T09:10:53.479Z,24.30
2018-07-09T09:13:21.592Z,24.20
2018-07-09T09:15:49.726Z,24.30
2018-07-09T09:18:17.888Z,24.50
2018-07-09T09:20:45.984Z,24.30
2018-07-09T09:23:14.084Z,24.20
2018-07-09T09:25:42.232Z,23.90
2018-07-09T09:28:10.331Z,24.00
2018-07-09T09:30:38.466Z,24.10
2018-07-09T09:33:06.762Z,24.40
2018-07-09T09:35:34.855Z,24.50
2018-07-09T09:38:02.968Z,24.50
2018-07-09T09:40:31.075Z,24.80
2018-07-09T09:42:59.176Z,24.90
2018-07-09T09:45:27.404Z,25.10
2018-07-09T09:47:55.494Z,25.30
2018-07-09T09:50:23.620Z,25.60
2018-07-09T09:52:51.848Z,25.70
2018-07-09T09:55:19.967Z,25.30
2018-07-09T09:57:48.051Z,25.40
2018-07-09T10:00:16.203Z,25.50
2018-07-09T10:02:44.301Z,25.60
2018-07-09T10:05:12.402Z,25.50
2018-07-09T10:07:40.516Z,25.50
2018-07-09T10:10:08.672Z,25.60
2018-07-09T10:12:36.774Z,25.90
2018-07-09T10:15:04.904Z,26.10
2018-07-09T10:17:32.998Z,26.10
2018-07-09T10:20:01.144Z,26.20
2018-07-09T10:22:29.247Z,26.00
2018-07-09T10:24:57.360Z,25.70
2018-07-09T10:27:25.484Z,25.70
2018-07-09T10:29:53.604Z,25.50
2018-07-09T10:32:21.747Z,25.20
2018-07-09T10:34:49.863Z,25.30
2018-07-09T10:37:18.016Z,25.30
2018-07-09T10:39:46.130Z,25.00
2018-07-09T10:42:14.252Z,25.00
2018-07-09T10:44:42.363Z,25.10
2018-07-09T10:47:10.510Z,25.30
2018-07-09T10:49:38.596Z,25.20
2018-07-09T10:52:06.741Z,25.10
2018-07-09T10:54:34.858Z,25.20
2018-07-09T10:57:02.995Z,25.20
2018-07-09T10:59:31.105Z,25.30
2018-07-09T11:01:59.247Z,25.10
2018-07-09T11:04:27.368Z,25.20
2018-07-09T11:06:55.507Z,25.10
2018-07-09T11:09:23.623Z,24.90
2018-07-09T11:11:51.767Z,24.80
2018-07-09T11:14:19.861Z,24.60
2018-07-09T11:16:47.999Z,24.40
2018-07-09T11:22:09.196Z,23.90
2018-07-09T11:24:37.287Z,24.00
2018-07-09T11:27:05.432Z,23.80
2018-07-09T11:29:33.533Z,23.60
2018-07-09T11:32:01.671Z,23.40
2018-07-09T11:34:29.794Z,23.30
2018-07-09T11:36:57.926Z,23.40
2018-07-09T11:39:26.058Z,23.40
2018-07-09T11:41:54.159Z,23.40
2018-07-09T11:44:22.260Z,23.60
2018-07-09T11:46:50.394Z,23.60
2018-07-09T11:49:18.491Z,23.70
2018-07-09T11:51:46.651Z,23.70
2018-07-09T11:54:14.770Z,23.90
2018-07-09T11:56:42.909Z,24.30
2018-07-09T11:59:11.036Z,24.60
2018-07-09T12:01:39.157Z,24.70
2018-07-09T12:04:07.266Z,24.80
2018-07-09T12:06:35.375Z,24.70
2018-07-09T12:11:31.521Z,24.50
2018-07-09T12:13:59.634Z,24.40
2018-07-09T12:16:27.728Z,24.30
2018-07-09T12:18:55.836Z,24.10
2018-07-09T12:23:51.853Z,24.00
2018-07-09T12:26:19.965Z,23.80
2018-07-09T12:28:48.112Z,23.80
2018-07-09T12:31:16.192Z,23.70
2018-07-09T12:33:44.286Z,23.80
2018-07-09T12:36:12.576Z,23.90
2018-07-09T12:38:40.635Z,24.20
2018-07-09T12:41:08.743Z,24.40
2018-07-09T12:43:36.870Z,24.30
2018-07-09T12:46:05.181Z,24.20
2018-07-09T12:48:33.367Z,24.30
2018-07-09T12:51:01.452Z,24.40
2018-07-09T12:53:29.555Z,24.80
2018-07-09T12:55:57.943Z,24.70
2018-07-09T12:58:26.066Z,24.70
2018-07-09T13:00:54.272Z,24.60
2018-07-09T13:03:22.671Z,24.60
2018-07-09T13:05:50.770Z,24.50
2018-07-09T13:08:18.888Z,24.40
2018-07-09T13:10:46.984Z,24.20
2018-07-09T13:13:15.178Z,24.00
2018-07-09T13:15:43.299Z,23.90
2018-07-09T13:18:11.455Z,23.70
2018-07-09T13:20:39.567Z,23.70
2018-07-09T13:23:07.699Z,23.50
2018-07-09T13:25:35.818Z,23.30
2018-07-09T13:28:03.991Z,23.30
2018-07-09T13:30:37.582Z,23.20
2018-07-09T13:33:05.942Z,23.00
2018-07-09T13:38:08.644Z,22.70
2018-07-09T13:40:36.745Z,22.70
2018-07-09T13:43:05.041Z,22.70
2018-07-09T13:45:33.332Z,22.70
2018-07-09T13:48:01.508Z,22.80
2018-07-09T13:50:29.639Z,22.90
2018-07-09T13:52:58.051Z,23.00
2018-07-09T13:55:26.199Z,23.20
2018-07-09T13:57:54.519Z,23.30
2018-07-09T14:00:22.638Z,23.20
2018-07-09T14:02:50.827Z,23.10
2018-07-09T14:05:18.893Z,23.10
2018-07-09T14:07:46.996Z,23.30
2018-07-09T14:10:15.138Z,23.30
2018-07-09T14:12:43.266Z,23.50
2018-07-09T14:15:11.370Z,23.50
2018-07-09T14:17:39.472Z,23.70
2018-07-09T14:20:20.874Z,24.10
2018-07-09T14:22:49.107Z,24.30
2018-07-09T14:25:17.733Z,24.40
2018-07-09T14:27:45.847Z,24.30
2018-07-09T14:30:13.978Z,24.30
2018-07-09T14:32:42.380Z,24.40
2018-07-09T14:35:10.478Z,24.30
2018-07-09T14:37:38.593Z,24.30
2018-07-09T14:40:06.716Z,24.20
2018-07-09T14:42:34.879Z,24.30
2018-07-09T14:45:03.370Z,24.50
2018-07-09T14:47:31.690Z,24.70
2018-07-09T14:49:59.779Z,24.70
2018-07-09T14:52:28.391Z,24.70
2018-07-09T14:54:56.495Z,24.70
2018-07-09T14:57:24.605Z,25.00
2018-07-09T14:59:52.702Z,25.20
2018-07-09T15:02:20.821Z,25.30
2018-07-09T15:04:48.903Z,25.40
2018-07-09T15:07:17.002Z,25.60
2018-07-09T15:09:45.100Z,25.50
2018-07-09T15:12:13.186Z,25.60
2018-07-09T15:14:41.322Z,25.60
2018-07-09T15:17:10.231Z,25.30
2018-07-09T15:19:38.345Z,24.90
2018-07-09T15:22:06.517Z,24.80
2018-07-09T15:24:34.884Z,24.70
2018-07-09T15:27:03.035Z,24.60
2018-07-09T15:29:31.185Z,24.60
2018-07-09T15:32:10.899Z,24.30
2018-07-09T15:34:39.070Z,24.40
2018-07-09T15:37:07.431Z,24.40
2018-07-09T15:39:35.707Z,24.20
2018-07-09T15:42:03.819Z,24.10
2018-07-09T15:44:31.952Z,24.20
2018-07-09T15:47:00.063Z,24.40
2018-07-09T15:49:28.286Z,24.50
2018-07-09T15:51:56.412Z,24.60
2018-07-09T15:54:24.524Z,24.50
2018-07-09T15:56:52.652Z,24.40
2018-07-09T15:59:20.770Z,24.30
2018-07-09T16:01:48.915Z,24.20
2018-07-09T16:04:17.061Z,24.10
2018-07-09T16:06:45.161Z,24.00
2018-07-09T16:09:14.091Z,24.00
2018-07-09T16:11:42.230Z,24.00
2018-07-09T16:14:10.382Z,24.00
2018-07-09T16:16:38.499Z,23.90
2018-07-09T16:21:41.320Z,23.80
2018-07-09T16:24:09.464Z,23.80
2018-07-09T16:26:37.706Z,23.80
2018-07-09T16:29:12.784Z,23.80
2018-07-09T16:31:40.779Z,23.70
2018-07-09T16:34:09.049Z,23.60
2018-07-09T16:36:37.184Z,23.60
2018-07-09T16:39:06.160Z,23.40
2018-07-09T16:41:34.468Z,23.30
2018-07-09T16:44:02.958Z,23.40
2018-07-09T16:46:31.138Z,23.50
2018-07-09T16:48:59.261Z,23.30
2018-07-09T16:51:27.350Z,23.10
2018-07-09T16:53:55.523Z,23.10
2018-07-09T16:58:51.573Z,23.10
2018-07-09T17:01:19.679Z,23.00
2018-07-09T17:03:47.805Z,23.00
2018-07-09T17:06:15.903Z,22.90
2018-07-09T17:08:43.999Z,22.90
2018-07-09T17:11:12.139Z,22.90
2018-07-09T17:13:40.278Z,22.80
2018-07-09T17:16:08.430Z,22.80
2018-07-09T17:18:36.619Z,22.70
2018-07-09T17:21:04.754Z,22.60
2018-07-09T17:23:32.870Z,22.60
2018-07-09T17:26:01.008Z,22.70
2018-07-09T17:28:29.119Z,22.50
2018-07-09T17:30:57.293Z,22.30
2018-07-09T17:33:25.408Z,22.30
2018-07-09T17:35:53.521Z,22.40
2018-07-09T17:38:21.645Z,22.40
2018-07-09T17:40:49.783Z,22.20
2018-07-09T17:43:17.900Z,22.20
2018-07-09T17:45:46.023Z,22.30
2018-07-09T17:48:14.152Z,22.30
2018-07-09T17:50:42.257Z,22.20
2018-07-09T17:53:10.390Z,22.30
2018-07-09T17:55:38.551Z,22.20
2018-07-09T17:58:06.692Z,22.20
2018-07-09T18:00:34.823Z,22.20
2018-07-09T18:03:02.946Z,21.90
2018-07-09T18:05:31.132Z,21.70
2018-07-09T18:07:59.262Z,21.60
2018-07-09T18:10:27.393Z,21.40
2018-07-09T18:12:55.666Z,21.40
2018-07-09T18:15:23.817Z,21.30
2018-07-09T18:17:51.947Z,21.20
2018-07-09T18:20:20.072Z,21.10
2018-07-09T18:22:48.227Z,21.00
2018-07-09T18:25:16.342Z,21.00
2018-07-09T18:27:44.479Z,21.00
2018-07-09T18:30:12.616Z,21.10
2018-07-09T18:32:40.770Z,21.00
2018-07-09T18:35:08.901Z,20.90
2018-07-09T18:37:38.359Z,20.90
2018-07-09T18:40:06.594Z,20.70
2018-07-09T18:42:34.687Z,20.60
2018-07-09T18:45:02.892Z,20.70
2018-07-09T18:47:31.050Z,20.70
2018-07-09T18:50:01.368Z,20.70
2018-07-09T18:52:30.205Z,20.80
2018-07-09T18:54:58.359Z,20.80
2018-07-09T18:57:32.436Z,20.80
2018-07-09T19:00:01.602Z,20.70
2018-07-09T19:02:29.744Z,20.50
2018-07-09T19:04:58.030Z,20.50
2018-07-09T19:07:28.086Z,20.30
2018-07-09T19:09:56.421Z,20.30
2018-07-09T19:12:24.908Z,20.30
2018-07-09T19:14:53.346Z,20.40
2018-07-09T19:18:10.010Z,20.30
2018-07-09T19:21:19.967Z,20.30
2018-07-09T19:23:47.110Z,20.30
2018-07-09T19:26:14.294Z,20.30
2018-07-09T19:28:41.505Z,20.20
2018-07-09T19:31:08.698Z,20.10
2018-07-09T19:33:36.141Z,20.00
2018-07-09T19:36:03.467Z,19.90
2018-07-09T19:38:30.648Z,19.70
2018-07-09T19:40:58.079Z,19.70
2018-07-09T19:45:52.893Z,19.60
2018-07-09T19:48:19.991Z,19.60
2018-07-09T19:50:47.702Z,19.60
2018-07-09T19:53:14.912Z,19.70
2018-07-09T19:55:42.634Z,19.70
2018-07-09T19:58:09.877Z,19.60
2018-07-09T20:00:37.752Z,19.40
2018-07-09T20:03:05.717Z,19.40
2018-07-09T20:05:32.898Z,19.20
2018-07-09T20:08:00.430Z,19.20
2018-07-09T20:10:32.867Z,19.20
2018-07-09T20:13:05.004Z,19.30
2018-07-09T20:15:37.617Z,19.20
2018-07-09T20:18:04.863Z,19.20
2018-07-09T20:20:32.043Z,19.00
2018-07-09T20:22:59.240Z,18.90
2018-07-09T20:25:26.407Z,18.90
2018-07-09T20:27:53.609Z,18.90
2018-07-09T20:30:20.797Z,18.90
2018-07-09T20:32:48.055Z,18.90
2018-07-09T20:35:15.185Z,18.80
2018-07-09T20:37:42.368Z,18.80
2018-07-09T20:40:09.612Z,18.80
2018-07-09T20:42:36.726Z,18.80
2018-07-09T20:45:03.910Z,18.80
2018-07-09T20:47:31.104Z,18.80
2018-07-09T20:49:58.274Z,18.80
2018-07-09T20:52:25.451Z,18.90
2018-07-09T20:54:52.631Z,19.00
2018-07-09T20:57:19.828Z,19.10
2018-07-09T20:59:47.008Z,19.10
2018-07-09T21:02:14.183Z,19.00
2018-07-09T21:04:41.362Z,18.80
2018-07-09T21:07:08.539Z,18.80
2018-07-09T21:09:35.707Z,18.80
2018-07-09T21:12:06.428Z,18.90
2018-07-09T21:14:34.160Z,18.80
2018-07-09T21:17:01.366Z,18.70
2018-07-09T21:19:28.531Z,18.80
2018-07-09T21:21:55.839Z,18.80
2018-07-09T21:24:22.946Z,18.80
2018-07-09T21:26:50.139Z,18.90
2018-07-09T21:29:17.322Z,19.00
2018-07-09T21:31:44.515Z,18.90
2018-07-09T21:34:11.682Z,18.90
2018-07-09T21:36:38.872Z,18.90
2018-07-09T21:39:06.053Z,19.00
2018-07-09T21:41:33.231Z,18.80
2018-07-09T21:44:00.414Z,18.80
2018-07-09T21:46:27.610Z,18.80
2018-07-09T21:48:54.783Z,18.60
2018-07-09T21:51:22.031Z,18.60
2018-07-09T21:53:49.199Z,18.60
2018-07-09T21:56:16.371Z,18.60
2018-07-09T21:58:43.559Z,18.70
2018-07-09T22:01:10.758Z,18.70
2018-07-09T22:03:37.945Z,18.70
2018-07-09T22:06:05.122Z,18.60
2018-07-09T22:08:32.306Z,18.50
2018-07-09T22:10:59.483Z,18.40
2018-07-09T22:13:26.679Z,18.50
2018-07-09T22:15:53.854Z,18.40
2018-07-09T22:18:21.039Z,18.40
2018-07-09T22:20:48.217Z,18.30
2018-07-09T22:23:15.395Z,18.30
2018-07-09T22:25:42.602Z,18.30
2018-07-09T22:28:09.787Z,18.20
2018-07-09T22:30:37.881Z,18.00
2018-07-09T22:33:05.993Z,18.00
2018-07-09T22:35:34.093Z,18.00
2018-07-09T22:38:02.194Z,18.00
2018-07-09T22:40:30.283Z,18.00
2018-07-09T22:42:58.940Z,18.00
2018-07-09T22:45:27.032Z,17.90
2018-07-09T22:47:55.148Z,18.00
2018-07-09T22:50:23.250Z,18.00
2018-07-09T22:52:51.364Z,17.90
2018-07-09T22:55:31.000Z,17.90
2018-07-09T22:57:59.152Z,17.80
2018-07-09T23:00:27.292Z,17.90
2018-07-09T23:03:08.210Z,17.90
2018-07-09T23:05:36.310Z,17.90
2018-07-09T23:08:04.664Z,17.80
2018-07-09T23:13:28.543Z,17.80
2018-07-09T23:16:37.739Z,17.80
2018-07-09T23:19:22.743Z,17.70
2018-07-09T23:22:01.087Z,17.60
2018-07-09T23:24:28.304Z,17.60
2018-07-09T23:26:55.842Z,17.70
2018-07-09T23:29:23.037Z,17.60
2018-07-09T23:31:50.270Z,17.60
2018-07-09T23:34:18.013Z,17.60
2018-07-09T23:36:45.197Z,17.70
2018-07-09T23:39:12.621Z,17.60
2018-07-09T23:41:39.811Z,17.60
2018-07-09T23:44:07.063Z,17.60
2018-07-09T23:46:34.283Z,17.70
2018-07-09T23:49:01.487Z,17.70
2018-07-09T23:51:28.654Z,17.80
2018-07-09T23:53:55.843Z,17.80
2018-07-09T23:58:40.134Z,17.80
